createdAt,value
2023-09-01T00:02:13.034Z,90047.88
2023-09-01T00:04:39.319Z,90042.69
2023-09-01T00:07:05.603Z,90037.19
2023-09-01T00:09:31.882Z,90035.47
2023-09-01T00:11:58.154Z,90033.31
2023-09-01T00:14:24.536Z,90040.34
2023-09-01T00:16:50.852Z,90038.28
2023-09-01T00:19:17.127Z,90039.19
2023-09-01T00:21:43.399Z,90034.31
2023-09-01T00:24:09.668Z,90039.19
2023-09-01T00:26:35.928Z,90034.63
2023-09-01T00:29:02.241Z,90032.63
2023-09-01T00:31:28.586Z,90042.56
2023-09-01T00:33:54.857Z,90035.34
2023-09-01T00:36:21.105Z,90040.06
2023-09-01T00:38:47.386Z,90032.69
2023-09-01T00:41:13.684Z,90035.81
2023-09-01T00:43:39.957Z,90036.63
2023-09-01T00:46:06.286Z,90037.56
2023-09-01T00:48:32.640Z,90035.72
2023-09-01T00:50:58.912Z,90032.41
2023-09-01T00:53:25.187Z,90041.66
2023-09-01T00:55:51.515Z,90033.97
2023-09-01T00:58:17.852Z,90032.19
2023-09-01T01:00:44.144Z,90031.47
2023-09-01T01:03:10.555Z,90028.00
2023-09-01T01:05:37.007Z,90029.03
2023-09-01T01:08:03.287Z,90032.88
2023-09-01T01:10:29.569Z,90024.53
2023-09-01T01:12:55.874Z,90026.56
2023-09-01T01:15:22.140Z,90028.22
2023-09-01T01:17:48.453Z,90034.25
2023-09-01T01:20:14.811Z,90031.63
2023-09-01T01:22:41.182Z,90034.00
2023-09-01T01:25:07.447Z,90035.91
2023-09-01T01:27:33.756Z,90034.16
2023-09-01T01:30:00.118Z,90028.41
2023-09-01T01:32:26.432Z,90030.59
2023-09-01T01:34:52.878Z,90032.28
2023-09-01T01:37:19.160Z,90025.03
2023-09-01T01:39:45.437Z,90028.47
2023-09-01T01:42:11.701Z,90024.19
2023-09-01T01:44:37.983Z,90026.66
2023-09-01T01:47:04.363Z,90025.47
2023-09-01T01:49:30.717Z,90025.28
2023-09-01T01:51:56.987Z,90024.00
2023-09-01T01:54:23.245Z,90026.44
2023-09-01T01:56:49.541Z,90022.94
2023-09-01T01:59:15.800Z,90021.47
2023-09-01T02:01:42.106Z,90022.03
2023-09-01T02:04:08.377Z,90030.53
2023-09-01T02:06:34.665Z,90033.56
2023-09-01T02:09:00.944Z,90031.41
2023-09-01T02:11:27.249Z,90026.22
2023-09-01T02:13:53.597Z,90021.28
2023-09-01T02:16:19.996Z,90031.44
2023-09-01T02:18:46.310Z,90036.06
2023-09-01T02:21:12.581Z,90038.53
2023-09-01T02:23:38.835Z,90031.03
2023-09-01T02:26:05.110Z,90034.56
2023-09-01T02:28:31.371Z,90037.56
2023-09-01T02:30:57.749Z,90035.09
2023-09-01T02:33:24.068Z,90038.72
2023-09-01T02:35:50.328Z,90034.66
2023-09-01T02:38:16.863Z,90041.53
2023-09-01T02:40:43.405Z,90035.09
2023-09-01T02:43:09.662Z,90039.44
2023-09-01T02:45:35.937Z,90031.97
2023-09-01T02:48:02.253Z,90033.09
2023-09-01T02:50:28.577Z,90031.06
2023-09-01T02:52:54.865Z,90030.97
2023-09-01T02:55:21.189Z,90031.13
2023-09-01T02:57:47.506Z,90034.44
2023-09-01T03:00:13.783Z,90035.06
2023-09-01T03:02:40.129Z,90027.31
2023-09-01T03:05:06.504Z,90035.97
2023-09-01T03:07:32.781Z,90027.34
2023-09-01T03:09:59.061Z,90029.34
2023-09-01T03:12:25.320Z,90029.66
2023-09-01T03:14:51.595Z,90024.00
2023-09-01T03:17:17.853Z,90031.28
2023-09-01T03:19:44.145Z,90021.25
2023-09-01T03:22:10.475Z,90021.81
2023-09-01T03:24:36.765Z,90020.22
2023-09-01T03:27:03.052Z,90019.34
2023-09-01T03:29:29.328Z,90015.50
2023-09-01T03:31:55.635Z,90021.25
2023-09-01T03:34:21.914Z,90021.00
2023-09-01T03:36:48.202Z,90019.53
2023-09-01T03:39:14.580Z,90026.50
2023-09-01T03:41:40.858Z,90016.13
2023-09-01T03:44:07.126Z,90007.78
2023-09-01T03:46:33.406Z,90022.78
2023-09-01T03:48:59.692Z,90009.88
2023-09-01T03:51:25.968Z,90011.53
2023-09-01T03:53:52.243Z,90009.59
2023-09-01T03:56:18.550Z,90014.22
2023-09-01T03:58:44.864Z,90018.09
2023-09-01T04:01:11.177Z,90012.84
2023-09-01T04:03:37.569Z,90027.34
2023-09-01T04:06:03.917Z,90024.81
2023-09-01T04:08:30.203Z,90016.66
2023-09-01T04:10:56.468Z,90021.09
2023-09-01T04:13:35.999Z,90021.84
2023-09-01T04:16:19.427Z,90019.19
2023-09-01T04:18:45.776Z,90019.44
2023-09-01T04:21:12.086Z,90016.41
2023-09-01T04:23:38.337Z,90014.66
2023-09-01T04:26:04.627Z,90021.75
2023-09-01T04:28:30.966Z,90021.50
2023-09-01T04:30:57.213Z,90016.81
2023-09-01T04:33:23.529Z,90009.31
2023-09-01T04:35:49.821Z,90015.31
2023-09-01T04:38:16.326Z,90020.44
2023-09-01T04:40:42.817Z,90015.41
2023-09-01T04:43:09.132Z,90015.56
2023-09-01T04:45:35.425Z,90023.84
2023-09-01T04:48:01.723Z,90016.63
2023-09-01T04:50:28.021Z,90012.00
2023-09-01T04:52:54.296Z,90015.84
2023-09-01T04:55:20.603Z,90012.97
2023-09-01T04:57:46.880Z,90009.72
2023-09-01T05:00:13.140Z,90019.31
2023-09-01T05:02:39.426Z,90010.66
2023-09-01T05:05:05.753Z,90015.00
2023-09-01T05:07:32.011Z,90011.69
2023-09-01T05:09:58.281Z,90013.88
2023-09-01T05:12:24.550Z,90011.66
2023-09-01T05:14:50.807Z,90010.97
2023-09-01T05:17:17.211Z,90012.22
2023-09-01T05:19:43.521Z,90019.25
2023-09-01T05:22:09.781Z,90011.75
2023-09-01T05:24:36.042Z,90010.66
2023-09-01T05:27:02.344Z,90018.28
2023-09-01T05:29:28.674Z,90014.69
2023-09-01T05:31:54.963Z,90014.25
2023-09-01T05:34:21.290Z,90010.00
2023-09-01T05:36:47.600Z,90003.91
2023-09-01T05:39:13.862Z,90007.41
2023-09-01T05:41:40.134Z,90018.66
2023-09-01T05:44:06.388Z,90019.69
2023-09-01T05:46:32.672Z,90023.53
2023-09-01T05:48:58.969Z,90015.31
2023-09-01T05:51:25.248Z,90025.59
2023-09-01T05:53:51.524Z,90020.50
2023-09-01T05:56:17.799Z,90025.31
2023-09-01T05:58:44.057Z,90026.50
2023-09-01T06:01:10.410Z,90032.16
2023-09-01T06:03:36.727Z,90031.63
2023-09-01T06:06:03.007Z,90038.34
2023-09-01T06:08:29.272Z,90037.88
2023-09-01T06:10:55.566Z,90034.84
2023-09-01T06:13:21.842Z,90040.31
2023-09-01T06:15:48.189Z,90047.47
2023-09-01T06:18:14.756Z,90050.53
2023-09-01T06:20:41.261Z,90045.75
2023-09-01T06:23:07.542Z,90037.72
2023-09-01T06:25:33.801Z,90044.25
2023-09-01T06:28:00.067Z,90044.91
2023-09-01T06:30:26.331Z,90050.19
2023-09-01T06:32:52.737Z,90043.63
2023-09-01T06:35:19.066Z,90046.69
2023-09-01T06:37:45.361Z,90047.91
2023-09-01T06:40:11.650Z,90049.16
2023-09-01T06:42:37.933Z,90049.63
2023-09-01T06:45:04.187Z,90049.50
2023-09-01T06:47:30.481Z,90047.69
2023-09-01T06:49:56.777Z,90047.50
2023-09-01T06:52:23.043Z,90047.56
2023-09-01T06:54:49.312Z,90051.00
2023-09-01T06:57:15.585Z,90052.34
2023-09-01T06:59:41.931Z,90049.47
2023-09-01T07:02:08.184Z,90039.63
2023-09-01T07:04:34.448Z,90048.81
2023-09-01T07:07:00.708Z,90048.44
2023-09-01T07:09:26.970Z,90040.94
2023-09-01T07:11:53.221Z,90042.50
2023-09-01T07:14:19.495Z,90040.34
2023-09-01T07:16:45.765Z,90033.22
2023-09-01T07:19:12.035Z,90039.94
2023-09-01T07:21:38.302Z,90031.50
2023-09-01T07:24:04.606Z,90032.34
2023-09-01T07:26:30.888Z,90039.13
2023-09-01T07:28:57.175Z,90042.72
2023-09-01T07:31:23.479Z,90039.13
2023-09-01T07:33:49.762Z,90029.84
2023-09-01T07:36:16.039Z,90028.94
2023-09-01T07:38:42.352Z,90030.34
2023-09-01T07:41:08.652Z,90023.22
2023-09-01T07:43:34.928Z,90025.75
2023-09-01T07:46:01.223Z,90026.41
2023-09-01T07:48:27.817Z,90024.03
2023-09-01T07:50:54.330Z,90029.94
2023-09-01T07:53:20.625Z,90026.88
2023-09-01T07:55:46.910Z,90032.78
2023-09-01T07:58:13.477Z,90021.69
2023-09-01T08:00:40.192Z,90023.47
2023-09-01T08:03:06.645Z,90027.75
2023-09-01T08:05:33.020Z,90031.16
2023-09-01T08:07:59.311Z,90027.47
2023-09-01T08:10:25.582Z,90031.44
2023-09-01T08:12:51.850Z,90035.56
2023-09-01T08:15:18.148Z,90040.22
2023-09-01T08:17:44.458Z,90033.50
2023-09-01T08:20:13.198Z,90033.16
2023-09-01T08:22:40.707Z,90036.09
2023-09-01T08:25:06.984Z,90037.22
2023-09-01T08:27:33.351Z,90044.72
2023-09-01T08:29:59.644Z,90037.56
2023-09-01T08:32:25.942Z,90033.47
2023-09-01T08:34:52.224Z,90036.72
2023-09-01T08:37:18.515Z,90026.56
2023-09-01T08:39:44.782Z,90034.97
2023-09-01T08:42:11.037Z,90028.94
2023-09-01T08:44:37.299Z,90030.84
2023-09-01T08:47:03.629Z,90030.00
2023-09-01T08:49:29.926Z,90031.13
2023-09-01T08:51:56.215Z,90024.94
2023-09-01T08:54:22.494Z,90024.78
2023-09-01T08:56:48.750Z,90024.69
2023-09-01T08:59:15.023Z,90021.84
2023-09-01T09:01:41.330Z,90026.91
2023-09-01T09:04:07.767Z,90024.78
2023-09-01T09:06:34.104Z,90024.06
2023-09-01T09:09:00.375Z,90020.84
2023-09-01T09:11:26.710Z,90023.56
2023-09-01T09:14:04.297Z,90022.75
2023-09-01T09:16:35.846Z,90013.09
2023-09-01T09:19:02.293Z,90018.03
2023-09-01T09:21:28.646Z,90026.28
2023-09-01T09:24:07.052Z,90026.81
2023-09-01T09:26:37.844Z,90019.69
2023-09-01T09:29:04.133Z,90018.69
2023-09-01T09:31:30.429Z,90016.47
2023-09-01T09:33:56.699Z,90012.97
2023-09-01T09:36:22.976Z,90011.44
2023-09-01T09:38:49.250Z,90007.94
2023-09-01T09:41:15.515Z,90006.91
2023-09-01T09:43:41.800Z,90005.69
2023-09-01T09:46:08.146Z,90014.47
2023-09-01T09:48:34.471Z,89999.53
2023-09-01T09:51:00.800Z,90005.50
2023-09-01T09:53:27.078Z,89998.06
2023-09-01T09:55:53.338Z,89987.66
2023-09-01T09:58:19.654Z,89992.81
2023-09-01T10:00:45.954Z,89986.16
2023-09-01T10:03:12.292Z,89989.38
2023-09-01T10:05:40.702Z,89984.03
2023-09-01T10:08:08.438Z,89983.84
2023-09-01T10:10:34.788Z,89977.94
2023-09-01T10:13:01.107Z,89975.94
2023-09-01T10:15:27.375Z,89972.91
2023-09-01T10:17:53.757Z,89975.41
2023-09-01T10:20:20.036Z,89972.56
2023-09-01T10:22:46.341Z,89969.56
2023-09-01T10:25:12.612Z,89963.13
2023-09-01T10:27:38.911Z,89960.41
2023-09-01T10:30:05.170Z,89955.31
2023-09-01T10:32:31.460Z,89959.94
2023-09-01T10:34:57.737Z,89954.81
2023-09-01T10:37:24.002Z,89950.53
2023-09-01T10:39:50.271Z,89941.75
2023-09-01T10:42:16.642Z,89945.97
2023-09-01T10:44:42.903Z,89945.41
2023-09-01T10:47:09.175Z,89941.84
2023-09-01T10:49:35.525Z,89944.03
2023-09-01T10:52:01.967Z,89933.19
2023-09-01T10:54:28.228Z,89935.84
2023-09-01T10:56:54.516Z,89937.69
2023-09-01T10:59:20.800Z,89937.50
2023-09-01T11:01:47.125Z,89937.97
2023-09-01T11:04:13.885Z,89934.38
2023-09-01T11:06:40.160Z,89934.03
2023-09-01T11:09:06.780Z,89930.53
2023-09-01T11:11:34.243Z,89932.00
2023-09-01T11:14:00.516Z,89929.59
2023-09-01T11:16:26.814Z,89930.78
2023-09-01T11:18:53.132Z,89932.91
2023-09-01T11:21:21.484Z,89929.03
2023-09-01T11:23:48.002Z,89929.50
2023-09-01T11:26:14.268Z,89928.06
2023-09-01T11:28:40.522Z,89921.31
2023-09-01T11:31:07.105Z,89921.22
2023-09-01T11:33:33.564Z,89927.06
2023-09-01T11:35:59.935Z,89925.75
2023-09-01T11:38:26.268Z,89916.09
2023-09-01T11:40:52.695Z,89921.66
2023-09-01T11:43:19.016Z,89911.19
2023-09-01T11:45:45.306Z,89903.22
2023-09-01T11:48:11.652Z,89912.38
2023-09-01T11:50:37.967Z,89899.38
2023-09-01T11:53:04.238Z,89904.03
2023-09-01T11:55:31.632Z,89904.03
2023-09-01T11:57:58.146Z,89901.09
2023-09-01T12:00:24.416Z,89903.41
2023-09-01T12:02:50.701Z,89900.69
2023-09-01T12:05:17.035Z,89898.94
2023-09-01T12:07:43.309Z,89903.03
2023-09-01T12:10:09.615Z,89899.22
2023-09-01T12:12:35.892Z,89891.59
2023-09-01T12:15:02.180Z,89892.16
2023-09-01T12:17:28.590Z,89886.66
2023-09-01T12:19:54.974Z,89888.66
2023-09-01T12:22:21.284Z,89882.38
2023-09-01T12:24:47.581Z,89880.78
2023-09-01T12:27:13.945Z,89878.75
2023-09-01T12:29:40.296Z,89875.56
2023-09-01T12:32:06.649Z,89880.16
2023-09-01T12:34:33.045Z,89867.56
2023-09-01T12:36:59.304Z,89876.34
2023-09-01T12:39:25.640Z,89871.28
2023-09-01T12:41:51.946Z,89876.81
2023-09-01T12:44:18.280Z,89870.19
2023-09-01T12:46:44.631Z,89863.50
2023-09-01T12:49:10.935Z,89861.19
2023-09-01T12:51:37.218Z,89859.72
2023-09-01T12:54:03.550Z,89859.91
2023-09-01T12:56:29.928Z,89859.09
2023-09-01T12:58:56.200Z,89860.97
2023-09-01T13:01:22.587Z,89862.31
2023-09-01T13:03:49.028Z,89856.28
2023-09-01T13:06:15.309Z,89853.06
2023-09-01T13:08:41.582Z,89853.75
2023-09-01T13:11:09.962Z,89850.06
2023-09-01T13:13:36.609Z,89845.91
2023-09-01T13:16:02.926Z,89846.66
2023-09-01T13:18:29.244Z,89842.00
2023-09-01T13:20:55.520Z,89841.50
2023-09-01T13:23:21.831Z,89846.53
2023-09-01T13:25:48.122Z,89842.00
2023-09-01T13:28:14.387Z,89838.03
2023-09-01T13:30:40.649Z,89838.97
2023-09-01T13:33:07.054Z,89845.88
2023-09-01T13:35:33.411Z,89840.91
2023-09-01T13:37:59.680Z,89837.72
2023-09-01T13:40:25.966Z,89825.69
2023-09-01T13:42:52.283Z,89835.88
2023-09-01T13:45:18.562Z,89826.81
2023-09-01T13:47:44.906Z,89833.19
2023-09-01T13:50:11.267Z,89825.13
2023-09-01T13:52:38.945Z,89825.56
2023-09-01T13:55:05.470Z,89830.38
2023-09-01T13:57:33.780Z,89822.63
2023-09-01T14:00:00.169Z,89821.50
2023-09-01T14:02:26.572Z,89823.94
2023-09-01T14:04:52.855Z,89821.78
2023-09-01T14:07:19.200Z,89821.81
2023-09-01T14:09:45.548Z,89815.72
2023-09-01T14:12:11.940Z,89820.47
2023-09-01T14:14:38.230Z,89818.41
2023-09-01T14:17:04.577Z,89820.56
2023-09-01T14:19:30.957Z,89823.06
2023-09-01T14:21:57.248Z,89824.38
2023-09-01T14:24:23.567Z,89823.25
2023-09-01T14:26:49.856Z,89818.03
2023-09-01T14:29:16.184Z,89811.06
2023-09-01T14:31:42.463Z,89812.16
2023-09-01T14:34:08.752Z,89811.22
2023-09-01T14:36:35.042Z,89811.72
2023-09-01T14:39:01.355Z,89820.00
2023-09-01T14:41:27.663Z,89813.66
2023-09-01T14:43:53.946Z,89807.59
2023-09-01T14:46:20.323Z,89813.41
2023-09-01T14:48:46.637Z,89818.03
2023-09-01T14:51:12.899Z,89821.19
2023-09-01T14:53:39.176Z,89822.28
2023-09-01T14:56:05.450Z,89822.63
2023-09-01T14:58:31.754Z,89822.84
2023-09-01T15:00:58.062Z,89819.25
2023-09-01T15:03:24.439Z,89813.28
2023-09-01T15:05:50.765Z,89810.41
2023-09-01T15:08:17.052Z,89809.28
2023-09-01T15:10:43.342Z,89816.78
2023-09-01T15:13:09.618Z,89814.41
2023-09-01T15:15:35.901Z,89817.47
2023-09-01T15:18:02.201Z,89814.13
2023-09-01T15:20:28.568Z,89809.56
2023-09-01T15:22:54.839Z,89813.69
2023-09-01T15:25:21.090Z,89814.94
2023-09-01T15:27:47.445Z,89810.56
2023-09-01T15:30:13.778Z,89814.59
2023-09-01T15:32:40.076Z,89811.84
2023-09-01T15:35:20.829Z,89809.25
2023-09-01T15:37:48.100Z,89809.97
2023-09-01T15:40:14.393Z,89812.38
2023-09-01T15:42:40.694Z,89813.88
2023-09-01T15:45:06.962Z,89807.09
2023-09-01T15:47:33.286Z,89812.88
2023-09-01T15:49:59.615Z,89814.06
2023-09-01T15:52:25.999Z,89816.81
2023-09-01T15:54:52.292Z,89815.56
2023-09-01T15:57:18.563Z,89811.22
2023-09-01T15:59:44.851Z,89814.19
2023-09-01T16:02:11.200Z,89812.06
2023-09-01T16:04:37.635Z,89808.84
2023-09-01T16:07:03.973Z,89812.22
2023-09-01T16:09:30.247Z,89810.00
2023-09-01T16:11:56.517Z,89815.69
2023-09-01T16:14:22.785Z,89809.91
2023-09-01T16:16:49.086Z,89808.78
2023-09-01T16:19:15.351Z,89812.16
2023-09-01T16:21:41.616Z,89817.88
2023-09-01T16:24:07.890Z,89821.69
2023-09-01T16:26:35.423Z,89818.00
2023-09-01T16:29:01.698Z,89819.13
2023-09-01T16:31:28.022Z,89819.94
2023-09-01T16:33:54.344Z,89821.22
2023-09-01T16:36:20.610Z,89823.66
2023-09-01T16:38:46.870Z,89822.75
2023-09-01T16:41:13.128Z,89832.56
2023-09-01T16:43:39.416Z,89821.88
2023-09-01T16:46:05.707Z,89822.88
2023-09-01T16:48:31.982Z,89826.66
2023-09-01T16:50:58.288Z,89825.00
2023-09-01T16:53:24.579Z,89820.97
2023-09-01T16:55:50.925Z,89824.09
2023-09-01T16:58:17.292Z,89832.19
2023-09-01T17:00:43.641Z,89824.63
2023-09-01T17:03:10.241Z,89825.38
2023-09-01T17:05:36.704Z,89828.91
2023-09-01T17:08:03.006Z,89837.25
2023-09-01T17:10:29.297Z,89836.78
2023-09-01T17:12:55.565Z,89840.34
2023-09-01T17:15:21.844Z,89845.28
2023-09-01T17:17:48.137Z,89843.88
2023-09-01T17:20:14.410Z,89843.75
2023-09-01T17:22:40.714Z,89845.53
2023-09-01T17:25:06.974Z,89851.06
2023-09-01T17:27:33.262Z,89851.97
2023-09-01T17:29:59.525Z,89852.22
2023-09-01T17:32:25.913Z,89858.97
2023-09-01T17:34:55.284Z,89854.59
2023-09-01T17:37:21.950Z,89858.09
2023-09-01T17:39:48.234Z,89863.78
2023-09-01T17:42:14.512Z,89863.38
2023-09-01T17:44:40.824Z,89860.78
2023-09-01T17:47:07.112Z,89863.41
2023-09-01T17:49:33.390Z,89869.97
2023-09-01T17:51:59.668Z,89873.06
2023-09-01T17:54:25.957Z,89872.88
2023-09-01T17:56:52.218Z,89877.16
2023-09-01T17:59:18.505Z,89871.13
2023-09-01T18:01:44.823Z,89878.03
2023-09-01T18:04:11.222Z,89889.28
2023-09-01T18:06:37.623Z,89889.75
2023-09-01T18:09:03.892Z,89890.41
2023-09-01T18:11:30.144Z,89895.69
2023-09-01T18:13:56.503Z,89896.84
2023-09-01T18:16:22.800Z,89901.44
2023-09-01T18:18:49.078Z,89905.34
2023-09-01T18:21:15.349Z,89909.50
2023-09-01T18:23:41.684Z,89908.41
2023-09-01T18:26:07.959Z,89908.25
2023-09-01T18:28:34.222Z,89918.81
2023-09-01T18:31:00.505Z,89914.25
2023-09-01T18:33:26.765Z,89916.69
2023-09-01T18:35:53.042Z,89919.28
2023-09-01T18:38:19.320Z,89917.59
2023-09-01T18:40:45.574Z,89927.03
2023-09-01T18:43:11.858Z,89932.47
2023-09-01T18:45:38.165Z,89941.47
2023-09-01T18:48:04.532Z,89942.59
2023-09-01T18:50:30.851Z,89946.34
2023-09-01T18:52:57.121Z,89948.63
2023-09-01T18:55:23.395Z,89946.47
2023-09-01T18:57:49.725Z,89958.53
2023-09-01T19:00:16.027Z,89954.88
2023-09-01T19:02:42.429Z,89960.84
2023-09-01T19:05:08.791Z,89963.22
2023-09-01T19:07:35.112Z,89968.53
2023-09-01T19:10:01.449Z,89966.44
2023-09-01T19:12:27.699Z,89969.81
2023-09-01T19:14:53.992Z,89972.13
2023-09-01T19:17:20.265Z,89982.00
2023-09-01T19:19:46.572Z,89979.19
2023-09-01T19:22:12.892Z,89981.69
2023-09-01T19:24:39.222Z,89986.69
2023-09-01T19:27:05.489Z,89998.03
2023-09-01T19:29:31.805Z,90000.38
2023-09-01T19:31:58.142Z,90002.19
2023-09-01T19:34:24.432Z,90001.34
2023-09-01T19:36:50.764Z,90007.50
2023-09-01T19:39:17.040Z,90007.22
2023-09-01T19:41:43.299Z,90013.88
2023-09-01T19:44:11.685Z,90014.31
2023-09-01T19:46:38.527Z,90018.91
2023-09-01T19:49:04.812Z,90024.97
2023-09-01T19:51:31.148Z,90034.06
2023-09-01T19:53:57.427Z,90036.41
2023-09-01T19:56:23.743Z,90034.91
2023-09-01T19:58:50.082Z,90040.47
2023-09-01T20:01:17.547Z,90043.84
2023-09-01T20:03:44.065Z,90055.03
2023-09-01T20:06:10.347Z,90056.84
2023-09-01T20:08:36.636Z,90067.91
2023-09-01T20:11:02.887Z,90057.44
2023-09-01T20:13:29.943Z,90062.41
2023-09-01T20:15:56.406Z,90068.88
2023-09-01T20:18:22.858Z,90078.53
2023-09-01T20:20:49.166Z,90078.44
2023-09-01T20:23:15.711Z,90069.44
2023-09-01T20:25:42.161Z,90077.13
2023-09-01T20:28:08.474Z,90080.88
2023-09-01T20:30:34.816Z,90084.41
2023-09-01T20:33:01.184Z,90085.44
2023-09-01T20:35:27.558Z,90082.16
2023-09-01T20:37:53.874Z,90093.50
2023-09-01T20:40:20.138Z,90092.16
2023-09-01T20:42:46.422Z,90093.31
2023-09-01T20:45:12.707Z,90097.75
2023-09-01T20:47:39.084Z,90103.53
2023-09-01T20:50:05.412Z,90099.41
2023-09-01T20:52:31.682Z,90097.91
2023-09-01T20:54:57.974Z,90100.31
2023-09-01T20:57:26.009Z,90111.25
2023-09-01T20:59:52.314Z,90105.00
2023-09-01T21:02:18.554Z,90111.91
2023-09-01T21:04:44.813Z,90107.72
2023-09-01T21:07:11.087Z,90109.66
2023-09-01T21:09:37.376Z,90114.16
2023-09-01T21:12:03.653Z,90122.66
2023-09-01T21:14:29.911Z,90117.28
2023-09-01T21:16:56.302Z,90118.88
2023-09-01T21:19:22.774Z,90118.31
2023-09-01T21:21:49.051Z,90115.88
2023-09-01T21:24:15.327Z,90117.59
2023-09-01T21:26:41.601Z,90123.75
2023-09-01T21:29:07.873Z,90128.69
2023-09-01T21:31:34.144Z,90128.94
2023-09-01T21:34:00.472Z,90130.66
2023-09-01T21:36:26.784Z,90128.91
2023-09-01T21:38:53.050Z,90132.63
2023-09-01T21:41:19.309Z,90133.50
2023-09-01T21:43:45.659Z,90134.34
2023-09-01T21:46:11.947Z,90138.41
2023-09-01T21:48:38.276Z,90141.88
2023-09-01T21:51:04.555Z,90145.25
2023-09-01T21:53:30.824Z,90146.22
2023-09-01T21:55:57.093Z,90154.66
2023-09-01T21:58:23.396Z,90157.06
2023-09-01T22:00:49.820Z,90161.31
2023-09-01T22:03:16.323Z,90151.84
2023-09-01T22:05:42.839Z,90152.84
2023-09-01T22:08:09.136Z,90162.56
2023-09-01T22:10:35.394Z,90156.69
2023-09-01T22:13:01.677Z,90154.91
2023-09-01T22:15:27.944Z,90161.03
2023-09-01T22:17:54.220Z,90156.75
2023-09-01T22:20:20.590Z,90161.13
2023-09-01T22:22:46.866Z,90159.38
2023-09-01T22:25:13.205Z,90171.28
2023-09-01T22:27:39.493Z,90156.91
2023-09-01T22:30:05.802Z,90159.84
2023-09-01T22:32:32.108Z,90156.06
2023-09-01T22:34:58.409Z,90165.53
2023-09-01T22:37:24.704Z,90164.56
2023-09-01T22:39:50.956Z,90173.78
2023-09-01T22:42:17.253Z,90168.97
2023-09-01T22:44:43.505Z,90164.06
2023-09-01T22:47:09.797Z,90165.97
2023-09-01T22:49:36.074Z,90165.06
2023-09-01T22:52:02.371Z,90163.34
2023-09-01T22:54:28.637Z,90157.34
2023-09-01T22:56:54.908Z,90160.25
2023-09-01T22:59:21.187Z,90159.69
2023-09-01T23:01:47.512Z,90161.47
2023-09-01T23:04:13.793Z,90160.13
2023-09-01T23:06:40.071Z,90164.38
2023-09-01T23:09:06.362Z,90164.50
2023-09-01T23:11:32.637Z,90157.34
2023-09-01T23:13:58.895Z,90156.03
2023-09-01T23:16:25.237Z,90161.72
2023-09-01T23:18:51.577Z,90164.47
2023-09-01T23:21:17.845Z,90156.41
2023-09-01T23:23:44.107Z,90157.88
2023-09-01T23:26:10.369Z,90162.94
2023-09-01T23:28:36.642Z,90161.41
2023-09-01T23:31:02.917Z,90154.47
2023-09-01T23:33:29.190Z,90159.22
2023-09-01T23:35:55.494Z,90154.31
2023-09-01T23:38:21.816Z,90162.22
2023-09-01T23:40:48.093Z,90150.09
2023-09-01T23:43:14.366Z,90153.47
2023-09-01T23:45:40.848Z,90157.13
2023-09-01T23:48:07.232Z,90156.91
2023-09-01T23:50:33.493Z,90165.56
2023-09-01T23:52:59.797Z,90156.56
2023-09-01T23:55:26.078Z,90165.41
2023-09-01T23:57:52.339Z,90162.88
